Current Weather Conditions: station 46145

sailwx.info

Wind from 090 at 7 knots gusting 11

Wave height 2.0 meters (6 feet), 13 second period

Air temperature 8.4° C
Water temperature 8.0° C

Last reported at 2016-Feb-12 22:00 UTC.
Time now 2016-Feb-13 00:26 UTC

Location: N 54°24' W 132°24'.
View on Google Maps.

See reports from other nearby stations

  
Tides and Currents Weather Stations Pressure Air Temp Water Temp Dewpoint Dewpoint Depression Visibility Wind Speed Wind Dir Waves Ship Positions
date/time (UTC)wind fromknots sea level pressurealtimeterstation pressurevisibilityair tempwater tempwave heightnotes
2016-Feb-12 22:00 090 7 gusting 11 8.4 8.0 2.0
2016-Feb-12 21:00 120 7 gusting 9 8.1 7.9 1.9
2016-Feb-12 20:00 140 9 gusting 11 7.8 7.9 1.8
2016-Feb-12 18:00 130 9 gusting 11 8.0 7.8 2.1
2016-Feb-12 17:00 130 9 gusting 11 7.8 7.8 2.0
2016-Feb-12 16:00 150 13 gusting 15 7.7 7.8 2.0
2016-Feb-12 15:00 140 13 gusting 15 7.8 7.8 1.8
2016-Feb-12 14:00 140 13 gusting 15 7.9 7.9 2.1
2016-Feb-12 13:00 110 9 gusting 13 7.8 7.9 1.8
2016-Feb-12 12:00 120 7 gusting 11 7.8 7.9 1.8
2016-Feb-12 11:00 140 5 gusting 7 7.8 7.8 1.9
2016-Feb-12 10:00 210 3 gusting 5 7.6 7.8 1.9
2016-Feb-12 09:00 230 7 gusting 11 7.5 7.9 2.2
2016-Feb-12 08:00 130 23 gusting 29 8.6 8.0 2.5
2016-Feb-12 07:00 120 27 gusting 33 8.3 8.0 2.5
2016-Feb-12 06:00 110 25 gusting 33 8.1 8.0 2.1
2016-Feb-12 04:00 110 21 gusting 29 9.1 8.0 2.3
2016-Feb-12 03:00 110 23 gusting 29 9.4 7.9 2.4
2016-Feb-12 00:00 100 21 gusting 27 8.9 7.9 2.5
2016-Feb-11 23:00 090 19 gusting 25 8.8 7.9 2.2
2016-Feb-11 19:00 100 21 gusting 27 9.1 8.0 2.4
2016-Feb-11 18:00 110 21 gusting 25 9.2 8.0 2.3
2016-Feb-11 17:00 110 21 gusting 29 9.0 7.8 2.5
2016-Feb-11 15:00 120 21 gusting 27 8.9 8.0 2.6
2016-Feb-11 13:00 120 21 gusting 27 8.7 7.9 2.7
2016-Feb-11 12:00 130 23 gusting 27 8.8 7.9 2.3
2016-Feb-11 11:00 130 19 gusting 25 8.7 7.9 2.2
2016-Feb-11 10:00 140 21 gusting 25 8.8 7.9 1.8
2016-Feb-11 09:00 130 19 gusting 23 8.7 8.0 1.7
2016-Feb-11 08:00 120 17 gusting 21 8.7 8.0 2.0
2016-Feb-11 07:00 130 23 gusting 27 8.9 7.9 2.0
2016-Feb-11 06:00 120 19 gusting 23 8.8 7.9 1.9
2016-Feb-11 05:00 120 13 gusting 17 8.7 8.0 1.5
2016-Feb-11 04:00 130 11 gusting 15 8.8 8.1 1.5
2016-Feb-11 03:00 140 13 gusting 17 9.0 8.0 1.5
2016-Feb-11 01:00 140 11 gusting 13 9.3 8.0 1.6